sensor_id;sensor_type;location;lat;lon;timestamp;temperature;humidity
70550;DHT22;58101;48.658;2.328;2023-12-07T00:01:19;4.20;99.90
70550;DHT22;58101;48.658;2.328;2023-12-07T00:03:45;4.20;99.90
70550;DHT22;58101;48.658;2.328;2023-12-07T00:06:11;4.20;99.90
70550;DHT22;58101;48.658;2.328;2023-12-07T00:08:36;4.20;99.90
70550;DHT22;58101;48.658;2.328;2023-12-07T00:11:02;4.30;99.90
70550;DHT22;58101;48.658;2.328;2023-12-07T00:13:27;4.30;99.90
70550;DHT22;58101;48.658;2.328;2023-12-07T00:15:53;4.30;99.90
70550;DHT22;58101;48.658;2.328;2023-12-07T00:18:19;4.30;99.90
70550;DHT22;58101;48.658;2.328;2023-12-07T00:20:45;4.30;99.90
70550;DHT22;58101;48.658;2.328;2023-12-07T00:23:10;4.30;99.90
70550;DHT22;58101;48.658;2.328;2023-12-07T00:25:36;4.30;99.90
70550;DHT22;58101;48.658;2.328;2023-12-07T00:28:02;4.20;99.90
70550;DHT22;58101;48.658;2.328;2023-12-07T00:30:28;4.20;99.90
70550;DHT22;58101;48.658;2.328;2023-12-07T00:32:54;4.20;99.90
70550;DHT22;58101;48.658;2.328;2023-12-07T00:35:19;4.10;99.90
70550;DHT22;58101;48.658;2.328;2023-12-07T00:37:48;4.10;99.90
70550;DHT22;58101;48.658;2.328;2023-12-07T00:40:13;4.10;99.90
70550;DHT22;58101;48.658;2.328;2023-12-07T00:42:39;4.10;99.90
70550;DHT22;58101;48.658;2.328;2023-12-07T00:45:05;4.10;99.90
70550;DHT22;58101;48.658;2.328;2023-12-07T00:47:31;4.10;99.90
70550;DHT22;58101;48.658;2.328;2023-12-07T00:49:56;4.00;99.90
70550;DHT22;58101;48.658;2.328;2023-12-07T00:52:22;4.00;99.90
70550;DHT22;58101;48.658;2.328;2023-12-07T00:54:47;4.00;99.90
70550;DHT22;58101;48.658;2.328;2023-12-07T00:57:13;4.10;99.90
70550;DHT22;58101;48.658;2.328;2023-12-07T00:59:39;3.90;99.90
70550;DHT22;58101;48.658;2.328;2023-12-07T01:02:05;3.90;99.90
70550;DHT22;58101;48.658;2.328;2023-12-07T01:04:31;3.90;99.90
70550;DHT22;58101;48.658;2.328;2023-12-07T01:06:57;3.90;99.90
70550;DHT22;58101;48.658;2.328;2023-12-07T01:09:23;3.90;99.90
70550;DHT22;58101;48.658;2.328;2023-12-07T01:11:49;3.90;99.90
70550;DHT22;58101;48.658;2.328;2023-12-07T01:14:15;3.90;99.90
70550;DHT22;58101;48.658;2.328;2023-12-07T01:16:42;3.90;99.90
70550;DHT22;58101;48.658;2.328;2023-12-07T01:19:08;3.80;99.90
70550;DHT22;58101;48.658;2.328;2023-12-07T01:21:33;3.90;99.90
70550;DHT22;58101;48.658;2.328;2023-12-07T01:23:59;4.00;99.90
70550;DHT22;58101;48.658;2.328;2023-12-07T01:26:25;3.90;99.90
70550;DHT22;58101;48.658;2.328;2023-12-07T01:28:50;4.00;99.90
70550;DHT22;58101;48.658;2.328;2023-12-07T01:31:16;4.00;99.90
70550;DHT22;58101;48.658;2.328;2023-12-07T01:33:43;4.00;99.90
70550;DHT22;58101;48.658;2.328;2023-12-07T01:36:08;3.90;99.90
70550;DHT22;58101;48.658;2.328;2023-12-07T01:38:34;3.90;99.90
70550;DHT22;58101;48.658;2.328;2023-12-07T01:41:00;3.90;99.90
70550;DHT22;58101;48.658;2.328;2023-12-07T01:43:25;3.90;99.90
70550;DHT22;58101;48.658;2.328;2023-12-07T01:45:52;3.90;99.90
70550;DHT22;58101;48.658;2.328;2023-12-07T01:48:20;3.90;99.90
70550;DHT22;58101;48.658;2.328;2023-12-07T01:50:47;3.90;99.90
70550;DHT22;58101;48.658;2.328;2023-12-07T01:53:13;3.80;99.90
70550;DHT22;58101;48.658;2.328;2023-12-07T01:55:40;3.80;99.90
70550;DHT22;58101;48.658;2.328;2023-12-07T01:58:06;3.80;99.90
70550;DHT22;58101;48.658;2.328;2023-12-07T02:00:33;3.90;99.90
70550;DHT22;58101;48.658;2.328;2023-12-07T02:03:03;3.90;99.90
70550;DHT22;58101;48.658;2.328;2023-12-07T02:05:29;3.90;99.90
70550;DHT22;58101;48.658;2.328;2023-12-07T02:07:55;3.90;99.90
70550;DHT22;58101;48.658;2.328;2023-12-07T02:10:20;3.90;99.90
70550;DHT22;58101;48.658;2.328;2023-12-07T02:12:47;3.90;99.90
70550;DHT22;58101;48.658;2.328;2023-12-07T02:15:13;3.80;99.90
70550;DHT22;58101;48.658;2.328;2023-12-07T02:20:45;3.80;99.90
70550;DHT22;58101;48.658;2.328;2023-12-07T02:23:17;3.80;99.90
70550;DHT22;58101;48.658;2.328;2023-12-07T02:25:54;3.80;99.90
70550;DHT22;58101;48.658;2.328;2023-12-07T02:28:20;3.80;99.90
70550;DHT22;58101;48.658;2.328;2023-12-07T02:30:46;3.80;99.90
70550;DHT22;58101;48.658;2.328;2023-12-07T02:33:12;3.80;99.90
70550;DHT22;58101;48.658;2.328;2023-12-07T02:35:38;3.90;99.90
70550;DHT22;58101;48.658;2.328;2023-12-07T02:38:06;3.80;99.90
70550;DHT22;58101;48.658;2.328;2023-12-07T02:40:32;3.80;99.90
70550;DHT22;58101;48.658;2.328;2023-12-07T02:43:00;3.80;99.90
70550;DHT22;58101;48.658;2.328;2023-12-07T02:45:27;3.70;99.90
70550;DHT22;58101;48.658;2.328;2023-12-07T02:47:53;3.70;99.90
70550;DHT22;58101;48.658;2.328;2023-12-07T02:50:19;3.70;99.90
70550;DHT22;58101;48.658;2.328;2023-12-07T02:52:45;3.70;99.90
70550;DHT22;58101;48.658;2.328;2023-12-07T02:55:11;3.70;99.90
70550;DHT22;58101;48.658;2.328;2023-12-07T02:57:37;3.70;99.90
70550;DHT22;58101;48.658;2.328;2023-12-07T03:00:03;3.70;99.90
70550;DHT22;58101;48.658;2.328;2023-12-07T03:02:36;3.70;99.90
70550;DHT22;58101;48.658;2.328;2023-12-07T03:05:02;3.60;99.90
70550;DHT22;58101;48.658;2.328;2023-12-07T03:07:28;3.60;99.90
70550;DHT22;58101;48.658;2.328;2023-12-07T03:09:53;3.60;99.90
70550;DHT22;58101;48.658;2.328;2023-12-07T03:12:19;3.60;99.90
70550;DHT22;58101;48.658;2.328;2023-12-07T03:14:44;3.60;99.90
70550;DHT22;58101;48.658;2.328;2023-12-07T03:17:10;3.50;99.90
70550;DHT22;58101;48.658;2.328;2023-12-07T03:19:40;3.60;99.90
70550;DHT22;58101;48.658;2.328;2023-12-07T03:22:06;3.60;99.90
70550;DHT22;58101;48.658;2.328;2023-12-07T03:24:35;3.60;99.90
70550;DHT22;58101;48.658;2.328;2023-12-07T03:27:01;3.60;99.90
70550;DHT22;58101;48.658;2.328;2023-12-07T03:29:27;3.60;99.90
70550;DHT22;58101;48.658;2.328;2023-12-07T03:31:52;3.60;99.90
70550;DHT22;58101;48.658;2.328;2023-12-07T03:34:18;3.60;99.90
70550;DHT22;58101;48.658;2.328;2023-12-07T03:36:47;3.50;99.90
70550;DHT22;58101;48.658;2.328;2023-12-07T03:39:14;3.50;99.90
70550;DHT22;58101;48.658;2.328;2023-12-07T03:41:40;3.50;99.90
70550;DHT22;58101;48.658;2.328;2023-12-07T03:44:06;3.50;99.90
70550;DHT22;58101;48.658;2.328;2023-12-07T03:46:31;3.50;99.90
70550;DHT22;58101;48.658;2.328;2023-12-07T03:48:57;3.50;99.90
70550;DHT22;58101;48.658;2.328;2023-12-07T03:51:22;3.50;99.90
70550;DHT22;58101;48.658;2.328;2023-12-07T03:53:48;3.50;99.90
70550;DHT22;58101;48.658;2.328;2023-12-07T03:58:49;3.40;99.90
70550;DHT22;58101;48.658;2.328;2023-12-07T04:01:15;3.40;99.90
70550;DHT22;58101;48.658;2.328;2023-12-07T04:03:40;3.40;99.90
70550;DHT22;58101;48.658;2.328;2023-12-07T04:06:06;3.50;99.90
70550;DHT22;58101;48.658;2.328;2023-12-07T04:08:31;3.50;99.90
70550;DHT22;58101;48.658;2.328;2023-12-07T04:10:58;3.50;99.90
70550;DHT22;58101;48.658;2.328;2023-12-07T04:13:24;3.50;99.90
70550;DHT22;58101;48.658;2.328;2023-12-07T04:15:49;3.50;99.90
70550;DHT22;58101;48.658;2.328;2023-12-07T04:18:15;3.50;99.90
70550;DHT22;58101;48.658;2.328;2023-12-07T04:20:41;3.50;99.90
70550;DHT22;58101;48.658;2.328;2023-12-07T04:23:06;3.50;99.90
70550;DHT22;58101;48.658;2.328;2023-12-07T04:25:32;3.50;99.90
70550;DHT22;58101;48.658;2.328;2023-12-07T04:27:59;3.50;99.90
70550;DHT22;58101;48.658;2.328;2023-12-07T04:30:24;3.40;99.90
70550;DHT22;58101;48.658;2.328;2023-12-07T04:32:50;3.40;99.90
70550;DHT22;58101;48.658;2.328;2023-12-07T04:35:15;3.40;99.90
70550;DHT22;58101;48.658;2.328;2023-12-07T04:37:41;3.50;99.90
70550;DHT22;58101;48.658;2.328;2023-12-07T04:40:07;3.40;99.90
70550;DHT22;58101;48.658;2.328;2023-12-07T04:42:33;3.40;99.90
70550;DHT22;58101;48.658;2.328;2023-12-07T04:44:59;3.50;99.90
70550;DHT22;58101;48.658;2.328;2023-12-07T04:47:24;3.50;99.90
70550;DHT22;58101;48.658;2.328;2023-12-07T04:49:50;3.50;99.90
70550;DHT22;58101;48.658;2.328;2023-12-07T04:52:16;3.50;99.90
70550;DHT22;58101;48.658;2.328;2023-12-07T04:54:41;3.50;99.90
70550;DHT22;58101;48.658;2.328;2023-12-07T04:57:07;3.50;99.90
70550;DHT22;58101;48.658;2.328;2023-12-07T04:59:32;3.60;99.90
70550;DHT22;58101;48.658;2.328;2023-12-07T05:01:58;3.60;99.90
70550;DHT22;58101;48.658;2.328;2023-12-07T05:04:24;3.60;99.90
70550;DHT22;58101;48.658;2.328;2023-12-07T05:06:49;3.60;99.90
70550;DHT22;58101;48.658;2.328;2023-12-07T05:09:15;3.60;99.90
70550;DHT22;58101;48.658;2.328;2023-12-07T05:11:41;3.60;99.90
70550;DHT22;58101;48.658;2.328;2023-12-07T05:14:06;3.60;99.90
70550;DHT22;58101;48.658;2.328;2023-12-07T05:16:32;3.60;99.90
70550;DHT22;58101;48.658;2.328;2023-12-07T05:18:58;3.60;99.90
70550;DHT22;58101;48.658;2.328;2023-12-07T05:21:24;3.60;99.90
70550;DHT22;58101;48.658;2.328;2023-12-07T05:23:50;3.60;99.90
70550;DHT22;58101;48.658;2.328;2023-12-07T05:26:15;3.70;99.90
70550;DHT22;58101;48.658;2.328;2023-12-07T05:28:41;3.70;99.90
70550;DHT22;58101;48.658;2.328;2023-12-07T05:31:07;3.70;99.90
70550;DHT22;58101;48.658;2.328;2023-12-07T05:33:32;3.60;99.90
70550;DHT22;58101;48.658;2.328;2023-12-07T05:35:58;3.70;99.90
70550;DHT22;58101;48.658;2.328;2023-12-07T05:38:25;3.70;99.90
70550;DHT22;58101;48.658;2.328;2023-12-07T05:40:51;3.70;99.90
70550;DHT22;58101;48.658;2.328;2023-12-07T05:43:17;3.70;99.90
70550;DHT22;58101;48.658;2.328;2023-12-07T05:45:42;3.70;99.90
70550;DHT22;58101;48.658;2.328;2023-12-07T05:48:08;3.70;99.90
70550;DHT22;58101;48.658;2.328;2023-12-07T05:50:34;3.70;99.90
70550;DHT22;58101;48.658;2.328;2023-12-07T05:53:00;3.70;99.90
70550;DHT22;58101;48.658;2.328;2023-12-07T05:55:26;3.60;99.90
70550;DHT22;58101;48.658;2.328;2023-12-07T05:57:51;3.70;99.90
70550;DHT22;58101;48.658;2.328;2023-12-07T06:00:17;3.70;99.90
70550;DHT22;58101;48.658;2.328;2023-12-07T06:02:44;3.70;99.90
70550;DHT22;58101;48.658;2.328;2023-12-07T06:05:10;3.70;99.90
70550;DHT22;58101;48.658;2.328;2023-12-07T06:07:36;3.70;99.90
70550;DHT22;58101;48.658;2.328;2023-12-07T06:10:02;3.70;99.90
70550;DHT22;58101;48.658;2.328;2023-12-07T06:12:27;3.70;99.90
70550;DHT22;58101;48.658;2.328;2023-12-07T06:14:53;3.80;99.90
70550;DHT22;58101;48.658;2.328;2023-12-07T06:17:19;3.80;99.90
70550;DHT22;58101;48.658;2.328;2023-12-07T06:19:45;3.70;99.90
70550;DHT22;58101;48.658;2.328;2023-12-07T06:22:11;3.80;99.90
70550;DHT22;58101;48.658;2.328;2023-12-07T06:24:39;3.80;99.90
70550;DHT22;58101;48.658;2.328;2023-12-07T06:27:05;3.80;99.90
70550;DHT22;58101;48.658;2.328;2023-12-07T06:29:30;3.80;99.90
70550;DHT22;58101;48.658;2.328;2023-12-07T06:31:56;3.80;99.90
70550;DHT22;58101;48.658;2.328;2023-12-07T06:34:22;3.80;99.90
70550;DHT22;58101;48.658;2.328;2023-12-07T06:36:48;3.80;99.90
70550;DHT22;58101;48.658;2.328;2023-12-07T06:39:14;3.90;99.90
70550;DHT22;58101;48.658;2.328;2023-12-07T06:41:42;3.90;99.90
70550;DHT22;58101;48.658;2.328;2023-12-07T06:44:08;3.80;99.90
70550;DHT22;58101;48.658;2.328;2023-12-07T06:46:33;3.80;99.90
70550;DHT22;58101;48.658;2.328;2023-12-07T06:48:59;3.80;99.90
70550;DHT22;58101;48.658;2.328;2023-12-07T06:51:25;3.80;99.90
70550;DHT22;58101;48.658;2.328;2023-12-07T06:53:52;3.80;99.90
70550;DHT22;58101;48.658;2.328;2023-12-07T06:56:18;3.70;99.90
70550;DHT22;58101;48.658;2.328;2023-12-07T06:58:43;3.70;99.90
70550;DHT22;58101;48.658;2.328;2023-12-07T07:01:09;3.70;99.90
70550;DHT22;58101;48.658;2.328;2023-12-07T07:03:34;3.70;99.90
70550;DHT22;58101;48.658;2.328;2023-12-07T07:06:00;3.70;99.90
70550;DHT22;58101;48.658;2.328;2023-12-07T07:08:26;3.70;99.90
70550;DHT22;58101;48.658;2.328;2023-12-07T07:10:51;3.70;99.90
70550;DHT22;58101;48.658;2.328;2023-12-07T07:13:17;3.70;99.90
70550;DHT22;58101;48.658;2.328;2023-12-07T07:15:45;3.70;99.90
70550;DHT22;58101;48.658;2.328;2023-12-07T07:18:10;3.70;99.90
70550;DHT22;58101;48.658;2.328;2023-12-07T07:20:36;3.70;99.90
70550;DHT22;58101;48.658;2.328;2023-12-07T07:23:02;3.70;99.90
70550;DHT22;58101;48.658;2.328;2023-12-07T07:25:27;3.80;99.90
70550;DHT22;58101;48.658;2.328;2023-12-07T07:27:53;3.70;99.90
70550;DHT22;58101;48.658;2.328;2023-12-07T07:30:23;3.90;99.90
70550;DHT22;58101;48.658;2.328;2023-12-07T07:32:49;3.80;99.90
70550;DHT22;58101;48.658;2.328;2023-12-07T07:35:15;3.80;99.90
70550;DHT22;58101;48.658;2.328;2023-12-07T07:37:41;3.80;99.90
70550;DHT22;58101;48.658;2.328;2023-12-07T07:40:08;3.80;99.90
70550;DHT22;58101;48.658;2.328;2023-12-07T07:42:39;3.90;99.90
70550;DHT22;58101;48.658;2.328;2023-12-07T07:45:09;3.90;99.90
70550;DHT22;58101;48.658;2.328;2023-12-07T07:47:35;3.90;99.90
70550;DHT22;58101;48.658;2.328;2023-12-07T07:50:01;3.90;99.90
70550;DHT22;58101;48.658;2.328;2023-12-07T07:52:32;3.90;99.90
70550;DHT22;58101;48.658;2.328;2023-12-07T07:54:59;3.90;99.90
70550;DHT22;58101;48.658;2.328;2023-12-07T07:57:24;4.00;99.90
70550;DHT22;58101;48.658;2.328;2023-12-07T07:59:50;3.90;99.90
70550;DHT22;58101;48.658;2.328;2023-12-07T08:02:15;4.00;99.90
70550;DHT22;58101;48.658;2.328;2023-12-07T08:04:41;4.00;99.90
70550;DHT22;58101;48.658;2.328;2023-12-07T08:07:07;4.10;99.90
70550;DHT22;58101;48.658;2.328;2023-12-07T08:09:33;4.10;99.90
70550;DHT22;58101;48.658;2.328;2023-12-07T08:11:58;4.10;99.90
70550;DHT22;58101;48.658;2.328;2023-12-07T08:14:24;4.10;99.90
70550;DHT22;58101;48.658;2.328;2023-12-07T08:16:50;4.10;99.90
70550;DHT22;58101;48.658;2.328;2023-12-07T08:19:15;4.20;99.90
70550;DHT22;58101;48.658;2.328;2023-12-07T08:21:41;4.20;99.90
70550;DHT22;58101;48.658;2.328;2023-12-07T08:24:06;4.10;99.90
70550;DHT22;58101;48.658;2.328;2023-12-07T08:26:32;4.10;99.90
70550;DHT22;58101;48.658;2.328;2023-12-07T08:28:58;4.20;99.90
70550;DHT22;58101;48.658;2.328;2023-12-07T08:31:23;4.20;99.90
70550;DHT22;58101;48.658;2.328;2023-12-07T08:33:50;4.20;99.90
70550;DHT22;58101;48.658;2.328;2023-12-07T08:36:16;4.20;99.90
70550;DHT22;58101;48.658;2.328;2023-12-07T08:38:42;4.20;99.90
70550;DHT22;58101;48.658;2.328;2023-12-07T08:41:08;4.30;99.90
70550;DHT22;58101;48.658;2.328;2023-12-07T08:43:33;4.30;99.90
70550;DHT22;58101;48.658;2.328;2023-12-07T08:45:59;4.30;99.90
70550;DHT22;58101;48.658;2.328;2023-12-07T08:48:24;4.30;99.90
70550;DHT22;58101;48.658;2.328;2023-12-07T08:50:50;4.30;99.90
70550;DHT22;58101;48.658;2.328;2023-12-07T08:53:16;4.30;99.90
70550;DHT22;58101;48.658;2.328;2023-12-07T08:55:42;4.40;99.90
70550;DHT22;58101;48.658;2.328;2023-12-07T08:58:08;4.40;99.90
70550;DHT22;58101;48.658;2.328;2023-12-07T09:00:33;4.50;99.90
70550;DHT22;58101;48.658;2.328;2023-12-07T09:02:59;4.50;99.90
70550;DHT22;58101;48.658;2.328;2023-12-07T09:05:28;4.50;99.90
70550;DHT22;58101;48.658;2.328;2023-12-07T09:07:55;4.60;99.90
70550;DHT22;58101;48.658;2.328;2023-12-07T09:10:22;4.70;99.90
70550;DHT22;58101;48.658;2.328;2023-12-07T09:12:47;4.70;99.90
70550;DHT22;58101;48.658;2.328;2023-12-07T09:15:13;4.80;99.90
70550;DHT22;58101;48.658;2.328;2023-12-07T09:17:39;4.80;99.90
70550;DHT22;58101;48.658;2.328;2023-12-07T09:20:07;4.80;99.90
70550;DHT22;58101;48.658;2.328;2023-12-07T09:22:44;4.80;99.90
70550;DHT22;58101;48.658;2.328;2023-12-07T09:25:10;5.00;99.90
70550;DHT22;58101;48.658;2.328;2023-12-07T09:27:37;4.90;99.90
70550;DHT22;58101;48.658;2.328;2023-12-07T09:30:07;4.90;99.90
70550;DHT22;58101;48.658;2.328;2023-12-07T09:32:39;5.00;99.90
70550;DHT22;58101;48.658;2.328;2023-12-07T09:35:06;5.10;99.90
70550;DHT22;58101;48.658;2.328;2023-12-07T09:37:40;5.20;99.90
70550;DHT22;58101;48.658;2.328;2023-12-07T09:40:06;5.50;99.90
70550;DHT22;58101;48.658;2.328;2023-12-07T09:42:33;6.00;99.90
70550;DHT22;58101;48.658;2.328;2023-12-07T09:44:59;6.40;99.90
70550;DHT22;58101;48.658;2.328;2023-12-07T09:47:26;6.60;99.90
70550;DHT22;58101;48.658;2.328;2023-12-07T09:49:53;6.60;99.90
70550;DHT22;58101;48.658;2.328;2023-12-07T09:52:19;6.30;99.90
70550;DHT22;58101;48.658;2.328;2023-12-07T09:54:47;6.10;99.90
70550;DHT22;58101;48.658;2.328;2023-12-07T09:57:12;5.80;99.90
70550;DHT22;58101;48.658;2.328;2023-12-07T09:59:40;5.60;99.90
70550;DHT22;58101;48.658;2.328;2023-12-07T10:02:06;5.70;99.90
70550;DHT22;58101;48.658;2.328;2023-12-07T10:04:33;5.50;99.90
70550;DHT22;58101;48.658;2.328;2023-12-07T10:06:58;5.40;99.90
70550;DHT22;58101;48.658;2.328;2023-12-07T10:09:24;5.40;99.90
70550;DHT22;58101;48.658;2.328;2023-12-07T10:12:02;5.30;99.90
70550;DHT22;58101;48.658;2.328;2023-12-07T10:14:27;5.20;99.90
70550;DHT22;58101;48.658;2.328;2023-12-07T10:16:54;5.20;99.90
70550;DHT22;58101;48.658;2.328;2023-12-07T10:19:23;5.20;99.90
70550;DHT22;58101;48.658;2.328;2023-12-07T10:21:50;5.10;99.90
70550;DHT22;58101;48.658;2.328;2023-12-07T10:24:17;5.10;99.90
70550;DHT22;58101;48.658;2.328;2023-12-07T10:26:44;5.10;99.90
70550;DHT22;58101;48.658;2.328;2023-12-07T10:29:10;5.10;99.90
70550;DHT22;58101;48.658;2.328;2023-12-07T10:31:36;5.10;99.90
70550;DHT22;58101;48.658;2.328;2023-12-07T10:34:02;5.10;99.90
70550;DHT22;58101;48.658;2.328;2023-12-07T10:36:29;5.20;99.90
70550;DHT22;58101;48.658;2.328;2023-12-07T10:38:54;5.20;99.90
70550;DHT22;58101;48.658;2.328;2023-12-07T10:41:22;5.30;99.90
70550;DHT22;58101;48.658;2.328;2023-12-07T10:44:01;5.40;99.90
70550;DHT22;58101;48.658;2.328;2023-12-07T10:46:28;5.50;99.90
70550;DHT22;58101;48.658;2.328;2023-12-07T10:48:59;5.60;99.90
70550;DHT22;58101;48.658;2.328;2023-12-07T10:53:51;5.40;99.90
70550;DHT22;58101;48.658;2.328;2023-12-07T10:56:38;5.40;99.90
70550;DHT22;58101;48.658;2.328;2023-12-07T10:59:09;5.40;99.90
70550;DHT22;58101;48.658;2.328;2023-12-07T11:01:38;5.50;99.90
70550;DHT22;58101;48.658;2.328;2023-12-07T11:04:05;5.50;99.90
70550;DHT22;58101;48.658;2.328;2023-12-07T11:06:35;5.60;99.90
70550;DHT22;58101;48.658;2.328;2023-12-07T11:09:04;5.60;99.90
70550;DHT22;58101;48.658;2.328;2023-12-07T11:11:33;5.70;99.90
70550;DHT22;58101;48.658;2.328;2023-12-07T11:14:05;5.60;99.90
70550;DHT22;58101;48.658;2.328;2023-12-07T11:16:41;5.70;99.90
70550;DHT22;58101;48.658;2.328;2023-12-07T11:22:00;5.80;99.90
70550;DHT22;58101;48.658;2.328;2023-12-07T11:24:26;5.80;99.90
70550;DHT22;58101;48.658;2.328;2023-12-07T11:26:53;5.80;99.90
70550;DHT22;58101;48.658;2.328;2023-12-07T11:29:24;5.70;99.90
70550;DHT22;58101;48.658;2.328;2023-12-07T11:31:50;5.80;99.90
70550;DHT22;58101;48.658;2.328;2023-12-07T11:37:01;5.80;99.90
70550;DHT22;58101;48.658;2.328;2023-12-07T11:39:28;5.80;99.90
70550;DHT22;58101;48.658;2.328;2023-12-07T11:41:55;5.90;99.90
70550;DHT22;58101;48.658;2.328;2023-12-07T11:44:37;5.90;99.90
70550;DHT22;58101;48.658;2.328;2023-12-07T11:47:04;5.90;99.90
70550;DHT22;58101;48.658;2.328;2023-12-07T11:49:31;5.90;99.90
70550;DHT22;58101;48.658;2.328;2023-12-07T11:51:58;5.90;99.90
70550;DHT22;58101;48.658;2.328;2023-12-07T11:54:24;6.00;99.90
70550;DHT22;58101;48.658;2.328;2023-12-07T11:56:57;6.10;99.90
70550;DHT22;58101;48.658;2.328;2023-12-07T11:59:23;6.00;99.90
70550;DHT22;58101;48.658;2.328;2023-12-07T12:01:51;6.00;99.90
70550;DHT22;58101;48.658;2.328;2023-12-07T12:04:17;6.00;99.90
70550;DHT22;58101;48.658;2.328;2023-12-07T12:06:44;6.10;99.90
70550;DHT22;58101;48.658;2.328;2023-12-07T12:09:16;6.10;99.90
70550;DHT22;58101;48.658;2.328;2023-12-07T12:11:49;6.00;99.90
70550;DHT22;58101;48.658;2.328;2023-12-07T12:14:16;6.00;99.90
70550;DHT22;58101;48.658;2.328;2023-12-07T12:16:45;6.00;99.90
70550;DHT22;58101;48.658;2.328;2023-12-07T12:19:11;6.00;99.90
70550;DHT22;58101;48.658;2.328;2023-12-07T12:21:37;6.00;99.90
70550;DHT22;58101;48.658;2.328;2023-12-07T12:24:06;6.00;99.90
70550;DHT22;58101;48.658;2.328;2023-12-07T12:26:37;6.00;99.90
70550;DHT22;58101;48.658;2.328;2023-12-07T12:29:04;6.00;99.90
70550;DHT22;58101;48.658;2.328;2023-12-07T12:31:31;6.00;99.90
70550;DHT22;58101;48.658;2.328;2023-12-07T12:33:57;6.10;99.90
70550;DHT22;58101;48.658;2.328;2023-12-07T12:36:23;6.10;99.90
70550;DHT22;58101;48.658;2.328;2023-12-07T12:38:52;6.10;99.90
70550;DHT22;58101;48.658;2.328;2023-12-07T12:41:24;6.20;99.90
70550;DHT22;58101;48.658;2.328;2023-12-07T12:43:51;6.20;99.90
70550;DHT22;58101;48.658;2.328;2023-12-07T12:46:17;6.30;99.90
70550;DHT22;58101;48.658;2.328;2023-12-07T12:48:53;6.40;99.90
70550;DHT22;58101;48.658;2.328;2023-12-07T12:51:20;6.40;99.90
70550;DHT22;58101;48.658;2.328;2023-12-07T12:53:47;6.50;99.90
70550;DHT22;58101;48.658;2.328;2023-12-07T12:56:14;6.60;99.90
70550;DHT22;58101;48.658;2.328;2023-12-07T12:58:40;6.60;99.90
70550;DHT22;58101;48.658;2.328;2023-12-07T13:01:05;6.60;99.90
70550;DHT22;58101;48.658;2.328;2023-12-07T13:03:32;6.60;99.90
70550;DHT22;58101;48.658;2.328;2023-12-07T13:05:58;6.60;99.90
70550;DHT22;58101;48.658;2.328;2023-12-07T13:08:23;6.60;99.90
70550;DHT22;58101;48.658;2.328;2023-12-07T13:10:49;6.50;99.90
70550;DHT22;58101;48.658;2.328;2023-12-07T13:13:15;6.50;99.90
70550;DHT22;58101;48.658;2.328;2023-12-07T13:15:41;6.50;99.90
70550;DHT22;58101;48.658;2.328;2023-12-07T13:18:07;6.50;99.90
70550;DHT22;58101;48.658;2.328;2023-12-07T13:20:34;6.50;99.90
70550;DHT22;58101;48.658;2.328;2023-12-07T13:23:00;6.50;99.90
70550;DHT22;58101;48.658;2.328;2023-12-07T13:25:26;6.50;99.90
70550;DHT22;58101;48.658;2.328;2023-12-07T13:27:52;6.60;99.90
70550;DHT22;58101;48.658;2.328;2023-12-07T13:30:18;6.60;99.90
70550;DHT22;58101;48.658;2.328;2023-12-07T13:32:43;6.60;99.90
70550;DHT22;58101;48.658;2.328;2023-12-07T13:35:09;6.60;99.90
70550;DHT22;58101;48.658;2.328;2023-12-07T13:37:35;6.70;99.90
70550;DHT22;58101;48.658;2.328;2023-12-07T13:40:02;6.70;99.90
70550;DHT22;58101;48.658;2.328;2023-12-07T13:42:30;6.70;99.90
70550;DHT22;58101;48.658;2.328;2023-12-07T13:44:56;6.70;99.90
70550;DHT22;58101;48.658;2.328;2023-12-07T13:47:24;6.60;99.90
70550;DHT22;58101;48.658;2.328;2023-12-07T13:49:55;6.60;99.90
70550;DHT22;58101;48.658;2.328;2023-12-07T13:52:22;6.50;99.90
70550;DHT22;58101;48.658;2.328;2023-12-07T13:54:47;6.50;99.90
70550;DHT22;58101;48.658;2.328;2023-12-07T13:57:14;6.60;99.90
70550;DHT22;58101;48.658;2.328;2023-12-07T13:59:40;6.50;99.90
70550;DHT22;58101;48.658;2.328;2023-12-07T14:02:06;6.40;99.90
70550;DHT22;58101;48.658;2.328;2023-12-07T14:04:32;6.40;99.90
70550;DHT22;58101;48.658;2.328;2023-12-07T14:07:30;6.40;99.90
70550;DHT22;58101;48.658;2.328;2023-12-07T14:09:56;6.30;99.90
70550;DHT22;58101;48.658;2.328;2023-12-07T14:12:22;6.30;99.90
70550;DHT22;58101;48.658;2.328;2023-12-07T14:14:48;6.30;99.90
70550;DHT22;58101;48.658;2.328;2023-12-07T14:17:15;6.20;99.90
70550;DHT22;58101;48.658;2.328;2023-12-07T14:19:42;6.20;99.90
70550;DHT22;58101;48.658;2.328;2023-12-07T14:22:07;6.20;99.90
70550;DHT22;58101;48.658;2.328;2023-12-07T14:24:36;6.20;99.90
70550;DHT22;58101;48.658;2.328;2023-12-07T14:27:02;6.20;99.90
70550;DHT22;58101;48.658;2.328;2023-12-07T14:29:31;6.10;99.90
70550;DHT22;58101;48.658;2.328;2023-12-07T14:31:58;6.10;99.90
70550;DHT22;58101;48.658;2.328;2023-12-07T14:34:25;6.10;99.90
70550;DHT22;58101;48.658;2.328;2023-12-07T14:36:54;6.10;99.90
70550;DHT22;58101;48.658;2.328;2023-12-07T14:39:19;5.90;99.90
70550;DHT22;58101;48.658;2.328;2023-12-07T14:41:47;6.00;99.90
70550;DHT22;58101;48.658;2.328;2023-12-07T14:44:14;6.00;99.90
70550;DHT22;58101;48.658;2.328;2023-12-07T14:46:44;6.00;99.90
70550;DHT22;58101;48.658;2.328;2023-12-07T14:49:14;6.00;99.90
70550;DHT22;58101;48.658;2.328;2023-12-07T14:51:40;6.10;99.90
70550;DHT22;58101;48.658;2.328;2023-12-07T14:54:06;6.00;99.90
70550;DHT22;58101;48.658;2.328;2023-12-07T14:56:33;6.00;99.90
70550;DHT22;58101;48.658;2.328;2023-12-07T14:59:02;6.00;99.90
70550;DHT22;58101;48.658;2.328;2023-12-07T15:01:27;6.10;99.90
70550;DHT22;58101;48.658;2.328;2023-12-07T15:03:53;6.00;99.90
70550;DHT22;58101;48.658;2.328;2023-12-07T15:06:19;6.00;99.90
70550;DHT22;58101;48.658;2.328;2023-12-07T15:08:44;6.00;99.90
70550;DHT22;58101;48.658;2.328;2023-12-07T15:11:10;6.00;99.90
70550;DHT22;58101;48.658;2.328;2023-12-07T15:13:36;5.90;99.90
70550;DHT22;58101;48.658;2.328;2023-12-07T15:16:02;5.90;99.90
70550;DHT22;58101;48.658;2.328;2023-12-07T15:18:29;5.90;99.90
70550;DHT22;58101;48.658;2.328;2023-12-07T15:20:57;6.00;99.90
70550;DHT22;58101;48.658;2.328;2023-12-07T15:23:22;6.00;99.90
70550;DHT22;58101;48.658;2.328;2023-12-07T15:25:48;6.00;99.90
70550;DHT22;58101;48.658;2.328;2023-12-07T15:28:13;6.00;99.90
70550;DHT22;58101;48.658;2.328;2023-12-07T15:30:40;6.00;99.90
70550;DHT22;58101;48.658;2.328;2023-12-07T15:33:06;6.00;99.90
70550;DHT22;58101;48.658;2.328;2023-12-07T15:35:32;6.00;99.90
70550;DHT22;58101;48.658;2.328;2023-12-07T15:37:58;6.00;99.90
70550;DHT22;58101;48.658;2.328;2023-12-07T15:40:23;6.20;99.90
70550;DHT22;58101;48.658;2.328;2023-12-07T15:42:49;6.00;99.90
70550;DHT22;58101;48.658;2.328;2023-12-07T15:45:15;6.00;99.90
70550;DHT22;58101;48.658;2.328;2023-12-07T15:47:40;6.00;99.90
70550;DHT22;58101;48.658;2.328;2023-12-07T15:50:07;6.00;99.90
70550;DHT22;58101;48.658;2.328;2023-12-07T15:52:32;6.00;99.90
70550;DHT22;58101;48.658;2.328;2023-12-07T15:54:59;6.00;99.90